sensor_id;sensor_type;location;lat;lon;timestamp;pressure;altitude;pressure_sealevel;temperature;humidity
61474;BME280;53694;49.784;30.150;2022-07-22T00:00:20;99269.36;;;19.25;68.40
61474;BME280;53694;49.784;30.150;2022-07-22T00:01:22;99271.77;;;19.22;68.54
61474;BME280;53694;49.784;30.150;2022-07-22T00:02:24;99277.00;;;19.20;68.63
61474;BME280;53694;49.784;30.150;2022-07-22T00:03:26;99280.97;;;19.19;68.80
61474;BME280;53694;49.784;30.150;2022-07-22T00:04:28;99282.19;;;19.18;68.89
61474;BME280;53694;49.784;30.150;2022-07-22T00:05:29;99281.84;;;19.16;68.94
61474;BME280;53694;49.784;30.150;2022-07-22T00:06:32;99283.48;;;19.14;69.24
61474;BME280;53694;49.784;30.150;2022-07-22T00:07:34;99281.55;;;19.11;69.40
61474;BME280;53694;49.784;30.150;2022-07-22T00:08:36;99278.05;;;19.07;69.43
61474;BME280;53694;49.784;30.150;2022-07-22T00:09:37;99283.27;;;19.05;69.61
61474;BME280;53694;49.784;30.150;2022-07-22T00:10:40;99284.11;;;19.02;69.80
61474;BME280;53694;49.784;30.150;2022-07-22T00:11:42;99287.73;;;18.98;69.97
61474;BME280;53694;49.784;30.150;2022-07-22T00:12:43;99288.61;;;18.95;70.16
61474;BME280;53694;49.784;30.150;2022-07-22T00:13:45;99286.67;;;18.92;70.22
61474;BME280;53694;49.784;30.150;2022-07-22T00:14:47;99291.45;;;18.92;70.45
61474;BME280;53694;49.784;30.150;2022-07-22T00:15:49;99292.52;;;18.98;70.34
61474;BME280;53694;49.784;30.150;2022-07-22T00:16:51;99285.76;;;19.19;69.95
61474;BME280;53694;49.784;30.150;2022-07-22T00:17:53;99290.69;;;19.51;68.88
61474;BME280;53694;49.784;30.150;2022-07-22T00:18:55;99292.63;;;19.90;67.71
61474;BME280;53694;49.784;30.150;2022-07-22T00:19:57;99288.66;;;20.24;66.76
61474;BME280;53694;49.784;30.150;2022-07-22T00:20:58;99288.22;;;20.42;65.78
61474;BME280;53694;49.784;30.150;2022-07-22T00:22:01;99286.52;;;20.48;65.30
61474;BME280;53694;49.784;30.150;2022-07-22T00:23:02;99288.22;;;20.42;65.19
61474;BME280;53694;49.784;30.150;2022-07-22T00:24:04;99290.06;;;20.32;65.47
61474;BME280;53694;49.784;30.150;2022-07-22T00:25:07;99289.52;;;20.21;65.76
61474;BME280;53694;49.784;30.150;2022-07-22T00:26:09;99293.00;;;20.09;66.12
61474;BME280;53694;49.784;30.150;2022-07-22T00:27:11;99289.41;;;19.92;66.61
61474;BME280;53694;49.784;30.150;2022-07-22T00:28:13;99293.67;;;19.80;67.07
61474;BME280;53694;49.784;30.150;2022-07-22T00:29:15;99293.11;;;19.69;67.45
61474;BME280;53694;49.784;30.150;2022-07-22T00:30:17;99298.45;;;19.60;67.76
61474;BME280;53694;49.784;30.150;2022-07-22T00:31:18;99298.67;;;19.49;68.23
61474;BME280;53694;49.784;30.150;2022-07-22T00:32:20;99301.25;;;19.40;68.61
61474;BME280;53694;49.784;30.150;2022-07-22T00:33:22;99299.82;;;19.32;68.92
61474;BME280;53694;49.784;30.150;2022-07-22T00:34:24;99309.11;;;19.25;69.24
61474;BME280;53694;49.784;30.150;2022-07-22T00:35:26;99304.46;;;19.18;69.60
61474;BME280;53694;49.784;30.150;2022-07-22T00:36:30;99307.75;;;19.13;69.77
61474;BME280;53694;49.784;30.150;2022-07-22T00:37:32;99300.68;;;19.09;70.06
61474;BME280;53694;49.784;30.150;2022-07-22T00:38:33;99297.18;;;19.05;70.22
61474;BME280;53694;49.784;30.150;2022-07-22T00:39:35;99305.59;;;19.01;70.59
61474;BME280;53694;49.784;30.150;2022-07-22T00:40:37;99302.31;;;19.06;70.55
61474;BME280;53694;49.784;30.150;2022-07-22T00:41:40;99305.89;;;19.27;70.22
61474;BME280;53694;49.784;30.150;2022-07-22T00:42:42;99303.61;;;19.61;69.37
61474;BME280;53694;49.784;30.150;2022-07-22T00:43:57;99305.11;;;20.02;68.20
61474;BME280;53694;49.784;30.150;2022-07-22T00:44:58;99296.87;;;20.47;66.48
61474;BME280;53694;49.784;30.150;2022-07-22T00:46:00;99304.67;;;20.85;64.93
61474;BME280;53694;49.784;30.150;2022-07-22T00:47:02;99301.84;;;21.02;64.24
61474;BME280;53694;49.784;30.150;2022-07-22T00:48:03;99297.41;;;21.04;63.79
61474;BME280;53694;49.784;30.150;2022-07-22T00:49:06;99319.14;;;20.96;63.75
61474;BME280;53694;49.784;30.150;2022-07-22T00:50:09;99298.40;;;20.81;64.02
61474;BME280;53694;49.784;30.150;2022-07-22T00:51:10;99302.80;;;20.66;64.37
61474;BME280;53694;49.784;30.150;2022-07-22T00:52:13;99308.03;;;20.47;64.90
61474;BME280;53694;49.784;30.150;2022-07-22T00:53:15;99315.61;;;20.31;65.42
61474;BME280;53694;49.784;30.150;2022-07-22T00:54:17;99324.73;;;20.15;66.00
61474;BME280;53694;49.784;30.150;2022-07-22T00:55:19;99319.12;;;19.98;66.47
61474;BME280;53694;49.784;30.150;2022-07-22T00:56:21;99327.81;;;19.84;67.06
61474;BME280;53694;49.784;30.150;2022-07-22T00:57:23;99324.97;;;19.68;67.59
61474;BME280;53694;49.784;30.150;2022-07-22T00:58:25;99321.25;;;19.55;68.04
61474;BME280;53694;49.784;30.150;2022-07-22T00:59:26;99320.67;;;19.43;68.47
61474;BME280;53694;49.784;30.150;2022-07-22T01:00:29;99321.69;;;19.33;68.97
61474;BME280;53694;49.784;30.150;2022-07-22T01:01:31;99321.09;;;19.22;69.42
61474;BME280;53694;49.784;30.150;2022-07-22T01:02:33;99318.50;;;19.11;69.86
61474;BME280;53694;49.784;30.150;2022-07-22T01:03:35;99320.66;;;19.04;70.22
61474;BME280;53694;49.784;30.150;2022-07-22T01:04:37;99319.22;;;18.95;70.56
61474;BME280;53694;49.784;30.150;2022-07-22T01:05:39;99329.25;;;18.89;71.09
61474;BME280;53694;49.784;30.150;2022-07-22T01:06:41;99330.84;;;18.90;71.25
61474;BME280;53694;49.784;30.150;2022-07-22T01:07:43;99322.57;;;19.07;71.02
61474;BME280;53694;49.784;30.150;2022-07-22T01:08:45;99324.81;;;19.35;70.34
61474;BME280;53694;49.784;30.150;2022-07-22T01:09:47;99324.13;;;19.71;69.30
61474;BME280;53694;49.784;30.150;2022-07-22T01:10:48;99324.47;;;20.09;68.00
61474;BME280;53694;49.784;30.150;2022-07-22T01:11:50;99318.31;;;20.51;66.64
61474;BME280;53694;49.784;30.150;2022-07-22T01:12:52;99322.65;;;20.84;65.54
61474;BME280;53694;49.784;30.150;2022-07-22T01:13:55;99320.97;;;21.03;64.39
61474;BME280;53694;49.784;30.150;2022-07-22T01:14:57;99327.33;;;21.04;63.97
61474;BME280;53694;49.784;30.150;2022-07-22T01:15:59;99316.53;;;20.89;64.02
61474;BME280;53694;49.784;30.150;2022-07-22T01:17:01;99322.16;;;20.73;64.49
61474;BME280;53694;49.784;30.150;2022-07-22T01:18:03;99323.12;;;20.50;64.99
61474;BME280;53694;49.784;30.150;2022-07-22T01:19:05;99323.27;;;20.27;65.71
61474;BME280;53694;49.784;30.150;2022-07-22T01:20:08;99331.31;;;20.05;66.49
61474;BME280;53694;49.784;30.150;2022-07-22T01:21:11;99338.59;;;19.82;67.18
61474;BME280;53694;49.784;30.150;2022-07-22T01:22:13;99337.83;;;19.62;67.92
61474;BME280;53694;49.784;30.150;2022-07-22T01:23:15;99342.95;;;19.43;68.59
61474;BME280;53694;49.784;30.150;2022-07-22T01:24:17;99334.52;;;19.27;69.30
61474;BME280;53694;49.784;30.150;2022-07-22T01:25:18;99330.02;;;19.13;69.92
61474;BME280;53694;49.784;30.150;2022-07-22T01:26:22;99335.86;;;18.99;70.50
61474;BME280;53694;49.784;30.150;2022-07-22T01:27:23;99328.96;;;18.84;71.21
61474;BME280;53694;49.784;30.150;2022-07-22T01:28:25;99330.35;;;18.72;71.74
61474;BME280;53694;49.784;30.150;2022-07-22T01:29:27;99329.22;;;18.69;72.26
61474;BME280;53694;49.784;30.150;2022-07-22T01:30:30;99333.74;;;18.83;72.26
61474;BME280;53694;49.784;30.150;2022-07-22T01:31:31;99337.27;;;19.07;71.39
61474;BME280;53694;49.784;30.150;2022-07-22T01:32:33;99335.45;;;19.40;70.67
61474;BME280;53694;49.784;30.150;2022-07-22T01:33:35;99336.31;;;19.77;69.55
61474;BME280;53694;49.784;30.150;2022-07-22T01:34:37;99331.80;;;20.19;68.05
61474;BME280;53694;49.784;30.150;2022-07-22T01:35:39;99335.34;;;20.56;66.53
61474;BME280;53694;49.784;30.150;2022-07-22T01:36:41;99335.38;;;20.85;65.28
61474;BME280;53694;49.784;30.150;2022-07-22T01:37:42;99336.76;;;20.93;64.82
61474;BME280;53694;49.784;30.150;2022-07-22T01:38:44;99342.88;;;20.88;64.65
61474;BME280;53694;49.784;30.150;2022-07-22T01:39:46;99339.32;;;20.71;64.84
61474;BME280;53694;49.784;30.150;2022-07-22T01:40:48;99343.92;;;20.45;65.62
61474;BME280;53694;49.784;30.150;2022-07-22T01:41:50;99341.38;;;20.18;66.39
61474;BME280;53694;49.784;30.150;2022-07-22T01:42:52;99344.28;;;19.95;67.17
61474;BME280;53694;49.784;30.150;2022-07-22T01:43:54;99346.41;;;19.71;67.93
61474;BME280;53694;49.784;30.150;2022-07-22T01:44:55;99350.80;;;19.48;68.74
61474;BME280;53694;49.784;30.150;2022-07-22T01:45:57;99348.44;;;19.27;69.62
61474;BME280;53694;49.784;30.150;2022-07-22T01:46:59;99349.21;;;19.08;70.33
61474;BME280;53694;49.784;30.150;2022-07-22T01:48:01;99344.38;;;18.88;71.31
61474;BME280;53694;49.784;30.150;2022-07-22T01:49:03;99346.69;;;18.70;72.07
61474;BME280;53694;49.784;30.150;2022-07-22T01:50:08;99342.42;;;18.62;72.72
61474;BME280;53694;49.784;30.150;2022-07-22T01:51:10;99340.34;;;18.69;72.85
61474;BME280;53694;49.784;30.150;2022-07-22T01:52:11;99351.02;;;18.94;72.29
61474;BME280;53694;49.784;30.150;2022-07-22T01:53:13;99353.22;;;19.27;71.52
61474;BME280;53694;49.784;30.150;2022-07-22T01:54:15;99355.69;;;19.64;70.39
61474;BME280;53694;49.784;30.150;2022-07-22T01:55:17;99348.05;;;20.05;68.85
61474;BME280;53694;49.784;30.150;2022-07-22T01:56:19;99356.30;;;20.44;67.44
61474;BME280;53694;49.784;30.150;2022-07-22T01:57:21;99345.84;;;20.81;66.03
61474;BME280;53694;49.784;30.150;2022-07-22T01:58:22;99350.69;;;21.10;64.86
61474;BME280;53694;49.784;30.150;2022-07-22T01:59:24;99354.41;;;21.19;64.09
61474;BME280;53694;49.784;30.150;2022-07-22T02:00:28;99347.90;;;21.10;64.06
61474;BME280;53694;49.784;30.150;2022-07-22T02:01:30;99355.60;;;20.89;64.30
61474;BME280;53694;49.784;30.150;2022-07-22T02:02:31;99351.09;;;20.63;64.95
61474;BME280;53694;49.784;30.150;2022-07-22T02:03:33;99351.33;;;20.36;65.66
61474;BME280;53694;49.784;30.150;2022-07-22T02:04:35;99359.12;;;20.08;66.55
61474;BME280;53694;49.784;30.150;2022-07-22T02:05:37;99353.03;;;19.77;67.64
61474;BME280;53694;49.784;30.150;2022-07-22T02:06:38;99357.59;;;19.47;68.51
61474;BME280;53694;49.784;30.150;2022-07-22T02:07:40;99364.08;;;19.21;69.46
61474;BME280;53694;49.784;30.150;2022-07-22T02:08:42;99359.30;;;18.98;70.35
61474;BME280;53694;49.784;30.150;2022-07-22T02:09:44;99356.89;;;18.77;71.25
61474;BME280;53694;49.784;30.150;2022-07-22T02:10:46;99362.73;;;18.59;72.03
61474;BME280;53694;49.784;30.150;2022-07-22T02:11:48;99359.65;;;18.53;72.68
61474;BME280;53694;49.784;30.150;2022-07-22T02:12:49;99364.24;;;18.63;72.83
61474;BME280;53694;49.784;30.150;2022-07-22T02:13:51;99366.29;;;18.86;72.40
61474;BME280;53694;49.784;30.150;2022-07-22T02:14:53;99364.91;;;19.18;71.46
61474;BME280;53694;49.784;30.150;2022-07-22T02:15:54;99370.59;;;19.54;70.25
61474;BME280;53694;49.784;30.150;2022-07-22T02:16:56;99375.38;;;19.93;69.04
61474;BME280;53694;49.784;30.150;2022-07-22T02:17:58;99368.92;;;20.33;67.53
61474;BME280;53694;49.784;30.150;2022-07-22T02:19:00;99372.02;;;20.71;65.48
61474;BME280;53694;49.784;30.150;2022-07-22T02:20:03;99370.70;;;20.92;64.56
61474;BME280;53694;49.784;30.150;2022-07-22T02:21:05;99373.41;;;20.95;64.13
61474;BME280;53694;49.784;30.150;2022-07-22T02:22:08;99368.53;;;20.83;64.34
61474;BME280;53694;49.784;30.150;2022-07-22T02:23:10;99374.28;;;20.60;64.83
61474;BME280;53694;49.784;30.150;2022-07-22T02:24:12;99368.92;;;20.33;65.44
61474;BME280;53694;49.784;30.150;2022-07-22T02:25:14;99375.20;;;20.01;66.35
61474;BME280;53694;49.784;30.150;2022-07-22T02:26:16;99379.84;;;19.71;67.31
61474;BME280;53694;49.784;30.150;2022-07-22T02:27:18;99372.02;;;19.42;68.46
61474;BME280;53694;49.784;30.150;2022-07-22T02:28:20;99378.89;;;19.14;69.36
61474;BME280;53694;49.784;30.150;2022-07-22T02:29:21;99372.64;;;18.87;70.33
61474;BME280;53694;49.784;30.150;2022-07-22T02:30:25;99376.15;;;18.64;71.27
61474;BME280;53694;49.784;30.150;2022-07-22T02:31:26;99374.48;;;18.43;72.32
61474;BME280;53694;49.784;30.150;2022-07-22T02:32:28;99370.67;;;18.33;73.06
61474;BME280;53694;49.784;30.150;2022-07-22T02:33:30;99371.79;;;18.39;73.22
61474;BME280;53694;49.784;30.150;2022-07-22T02:34:32;99382.93;;;18.63;72.80
61474;BME280;53694;49.784;30.150;2022-07-22T02:35:33;99375.71;;;18.92;71.91
61474;BME280;53694;49.784;30.150;2022-07-22T02:36:35;99379.06;;;19.27;70.71
61474;BME280;53694;49.784;30.150;2022-07-22T02:37:37;99383.55;;;19.64;69.39
61474;BME280;53694;49.784;30.150;2022-07-22T02:38:39;99379.59;;;20.02;68.06
61474;BME280;53694;49.784;30.150;2022-07-22T02:39:40;99386.70;;;20.39;66.57
61474;BME280;53694;49.784;30.150;2022-07-22T02:40:42;99383.34;;;20.64;65.31
61474;BME280;53694;49.784;30.150;2022-07-22T02:41:44;99392.42;;;20.68;64.85
61474;BME280;53694;49.784;30.150;2022-07-22T02:42:46;99390.68;;;20.58;64.86
61474;BME280;53694;49.784;30.150;2022-07-22T02:43:47;99385.91;;;20.38;65.27
61474;BME280;53694;49.784;30.150;2022-07-22T02:44:49;99388.85;;;20.15;65.93
61474;BME280;53694;49.784;30.150;2022-07-22T02:45:51;99389.02;;;19.88;66.53
61474;BME280;53694;49.784;30.150;2022-07-22T02:46:53;99384.43;;;19.58;67.46
61474;BME280;53694;49.784;30.150;2022-07-22T02:47:55;99392.98;;;19.27;68.50
61474;BME280;53694;49.784;30.150;2022-07-22T02:48:58;99386.29;;;19.01;69.44
61474;BME280;53694;49.784;30.150;2022-07-22T02:49:59;99386.71;;;18.76;70.41
61474;BME280;53694;49.784;30.150;2022-07-22T02:51:01;99381.11;;;18.53;71.35
61474;BME280;53694;49.784;30.150;2022-07-22T02:52:03;99394.48;;;18.34;72.12
61474;BME280;53694;49.784;30.150;2022-07-22T02:53:05;99383.88;;;18.26;72.94
61474;BME280;53694;49.784;30.150;2022-07-22T02:54:07;99386.14;;;18.34;72.96
61474;BME280;53694;49.784;30.150;2022-07-22T02:55:09;99388.97;;;18.58;72.63
61474;BME280;53694;49.784;30.150;2022-07-22T02:56:11;99393.67;;;18.88;71.78
61474;BME280;53694;49.784;30.150;2022-07-22T02:57:13;99391.91;;;19.21;70.60
61474;BME280;53694;49.784;30.150;2022-07-22T02:58:15;99393.23;;;19.56;69.36
61474;BME280;53694;49.784;30.150;2022-07-22T02:59:17;99402.03;;;19.94;67.92
61474;BME280;53694;49.784;30.150;2022-07-22T03:00:19;99391.30;;;20.29;66.52
61474;BME280;53694;49.784;30.150;2022-07-22T03:01:21;99399.91;;;20.55;65.60
61474;BME280;53694;49.784;30.150;2022-07-22T03:02:23;99402.55;;;20.62;64.88
61474;BME280;53694;49.784;30.150;2022-07-22T03:03:25;99402.00;;;20.51;64.82
61474;BME280;53694;49.784;30.150;2022-07-22T03:04:27;99405.25;;;20.29;65.21
61474;BME280;53694;49.784;30.150;2022-07-22T03:05:28;99401.52;;;20.00;66.00
61474;BME280;53694;49.784;30.150;2022-07-22T03:06:31;99407.77;;;19.67;66.92
61474;BME280;53694;49.784;30.150;2022-07-22T03:07:33;99408.72;;;19.37;67.91
61474;BME280;53694;49.784;30.150;2022-07-22T03:08:35;99399.31;;;19.08;68.91
61474;BME280;53694;49.784;30.150;2022-07-22T03:09:37;99408.48;;;18.81;70.05
61474;BME280;53694;49.784;30.150;2022-07-22T03:10:39;99406.49;;;18.55;71.14
61474;BME280;53694;49.784;30.150;2022-07-22T03:11:41;99397.30;;;18.31;72.12
61474;BME280;53694;49.784;30.150;2022-07-22T03:12:43;99399.09;;;18.17;72.95
61474;BME280;53694;49.784;30.150;2022-07-22T03:13:44;99400.61;;;18.22;73.29
61474;BME280;53694;49.784;30.150;2022-07-22T03:14:46;99397.16;;;18.41;73.06
61474;BME280;53694;49.784;30.150;2022-07-22T03:15:48;99401.11;;;18.71;72.32
61474;BME280;53694;49.784;30.150;2022-07-22T03:16:50;99399.36;;;19.04;71.27
61474;BME280;53694;49.784;30.150;2022-07-22T03:17:52;99408.22;;;19.42;70.09
61474;BME280;53694;49.784;30.150;2022-07-22T03:18:53;99399.89;;;19.82;68.68
61474;BME280;53694;49.784;30.150;2022-07-22T03:19:55;99405.77;;;20.24;67.26
61474;BME280;53694;49.784;30.150;2022-07-22T03:20:57;99402.55;;;20.62;65.94
61474;BME280;53694;49.784;30.150;2022-07-22T03:21:59;99409.08;;;20.88;64.46
61474;BME280;53694;49.784;30.150;2022-07-22T03:23:00;99403.41;;;20.91;64.12
61474;BME280;53694;49.784;30.150;2022-07-22T03:24:03;99412.48;;;20.79;64.10
61474;BME280;53694;49.784;30.150;2022-07-22T03:25:05;99414.56;;;20.59;64.56
61474;BME280;53694;49.784;30.150;2022-07-22T03:26:08;99407.19;;;20.32;65.10
61474;BME280;53694;49.784;30.150;2022-07-22T03:27:09;99408.66;;;20.01;66.04
61474;BME280;53694;49.784;30.150;2022-07-22T03:28:11;99404.55;;;19.69;67.04
61474;BME280;53694;49.784;30.150;2022-07-22T03:29:13;99399.48;;;19.40;68.02
61474;BME280;53694;49.784;30.150;2022-07-22T03:30:15;99402.38;;;19.13;69.05
61474;BME280;53694;49.784;30.150;2022-07-22T03:31:17;99401.23;;;18.87;70.02
61474;BME280;53694;49.784;30.150;2022-07-22T03:32:19;99401.56;;;18.66;70.91
61474;BME280;53694;49.784;30.150;2022-07-22T03:33:20;99401.46;;;18.46;71.73
61474;BME280;53694;49.784;30.150;2022-07-22T03:34:22;99403.98;;;18.37;72.71
61474;BME280;53694;49.784;30.150;2022-07-22T03:35:24;99393.95;;;18.43;72.91
61474;BME280;53694;49.784;30.150;2022-07-22T03:36:28;99401.56;;;18.66;72.60
61474;BME280;53694;49.784;30.150;2022-07-22T03:37:30;99391.51;;;18.99;71.62
61474;BME280;53694;49.784;30.150;2022-07-22T03:38:33;99402.05;;;19.31;70.51
61474;BME280;53694;49.784;30.150;2022-07-22T03:39:35;99393.46;;;19.65;69.42
61474;BME280;53694;49.784;30.150;2022-07-22T03:40:37;99392.64;;;20.05;68.27
61474;BME280;53694;49.784;30.150;2022-07-22T03:41:39;99399.78;;;20.42;66.85
61474;BME280;53694;49.784;30.150;2022-07-22T03:42:41;99403.86;;;20.67;65.87
61474;BME280;53694;49.784;30.150;2022-07-22T03:43:42;99403.86;;;20.74;65.22
61474;BME280;53694;49.784;30.150;2022-07-22T03:44:44;99401.23;;;20.66;64.94
61474;BME280;53694;49.784;30.150;2022-07-22T03:45:46;99408.44;;;20.47;65.38
61474;BME280;53694;49.784;30.150;2022-07-22T03:46:48;99402.27;;;20.20;66.06
61474;BME280;53694;49.784;30.150;2022-07-22T03:47:50;99398.53;;;19.90;66.94
61474;BME280;53694;49.784;30.150;2022-07-22T03:48:52;99403.11;;;19.61;67.93
61474;BME280;53694;49.784;30.150;2022-07-22T03:49:53;99405.21;;;19.33;68.87
61474;BME280;53694;49.784;30.150;2022-07-22T03:50:55;99402.44;;;19.10;69.80
61474;BME280;53694;49.784;30.150;2022-07-22T03:51:57;99400.81;;;18.89;70.68
61474;BME280;53694;49.784;30.150;2022-07-22T03:52:59;99402.32;;;18.70;71.60
61474;BME280;53694;49.784;30.150;2022-07-22T03:54:01;99398.58;;;18.53;72.35
61474;BME280;53694;49.784;30.150;2022-07-22T03:55:03;99397.52;;;18.43;73.15
61474;BME280;53694;49.784;30.150;2022-07-22T03:56:07;99398.98;;;18.52;73.29
61474;BME280;53694;49.784;30.150;2022-07-22T03:57:09;99408.62;;;18.74;72.91
61474;BME280;53694;49.784;30.150;2022-07-22T03:58:11;99401.71;;;19.06;72.02
61474;BME280;53694;49.784;30.150;2022-07-22T03:59:12;99409.84;;;19.40;70.78
61474;BME280;53694;49.784;30.150;2022-07-22T04:00:16;99404.41;;;19.76;69.63
61474;BME280;53694;49.784;30.150;2022-07-22T04:01:17;99409.59;;;20.14;68.30
61474;BME280;53694;49.784;30.150;2022-07-22T04:02:19;99422.30;;;20.51;66.82
61474;BME280;53694;49.784;30.150;2022-07-22T04:03:21;99416.58;;;20.75;65.46
61474;BME280;53694;49.784;30.150;2022-07-22T04:04:23;99417.28;;;20.79;65.19
61474;BME280;53694;49.784;30.150;2022-07-22T04:05:24;99410.75;;;20.69;65.20
61474;BME280;53694;49.784;30.150;2022-07-22T04:06:27;99419.59;;;20.47;65.67
61474;BME280;53694;49.784;30.150;2022-07-22T04:07:28;99424.95;;;20.22;66.37
61474;BME280;53694;49.784;30.150;2022-07-22T04:08:30;99416.33;;;19.96;67.24
61474;BME280;53694;49.784;30.150;2022-07-22T04:09:32;99414.47;;;19.70;68.10
61474;BME280;53694;49.784;30.150;2022-07-22T04:10:34;99416.91;;;19.44;68.86
61474;BME280;53694;49.784;30.150;2022-07-22T04:11:36;99407.05;;;19.20;69.90
61474;BME280;53694;49.784;30.150;2022-07-22T04:12:39;99414.17;;;18.97;70.81
61474;BME280;53694;49.784;30.150;2022-07-22T04:13:41;99414.91;;;18.78;71.60
61474;BME280;53694;49.784;30.150;2022-07-22T04:14:42;99411.52;;;18.63;72.41
61474;BME280;53694;49.784;30.150;2022-07-22T04:15:44;99405.66;;;18.58;72.93
61474;BME280;53694;49.784;30.150;2022-07-22T04:16:46;99417.80;;;18.71;73.01
61474;BME280;53694;49.784;30.150;2022-07-22T04:17:48;99408.20;;;18.99;72.30
61474;BME280;53694;49.784;30.150;2022-07-22T04:18:49;99409.56;;;19.34;71.15
61474;BME280;53694;49.784;30.150;2022-07-22T04:19:51;99413.17;;;19.75;69.94
61474;BME280;53694;49.784;30.150;2022-07-22T04:20:53;99418.30;;;20.16;68.54
61474;BME280;53694;49.784;30.150;2022-07-22T04:21:55;99421.81;;;20.56;67.20
61474;BME280;53694;49.784;30.150;2022-07-22T04:22:56;99418.68;;;20.87;65.83
61474;BME280;53694;49.784;30.150;2022-07-22T04:23:58;99414.41;;;20.99;65.08
61474;BME280;53694;49.784;30.150;2022-07-22T04:25:00;99422.09;;;20.94;64.75
61474;BME280;53694;49.784;30.150;2022-07-22T04:26:02;99421.64;;;20.80;65.06
61474;BME280;53694;49.784;30.150;2022-07-22T04:27:03;99424.16;;;20.58;65.46
61474;BME280;53694;49.784;30.150;2022-07-22T04:28:05;99427.92;;;20.31;66.20
61474;BME280;53694;49.784;30.150;2022-07-22T04:29:07;99420.88;;;20.07;67.06
61474;BME280;53694;49.784;30.150;2022-07-22T04:30:10;99420.95;;;19.83;67.74
61474;BME280;53694;49.784;30.150;2022-07-22T04:31:12;99423.80;;;19.60;68.40
61474;BME280;53694;49.784;30.150;2022-07-22T04:32:13;99419.42;;;19.39;69.20
61474;BME280;53694;49.784;30.150;2022-07-22T04:33:15;99419.31;;;19.22;70.01
61474;BME280;53694;49.784;30.150;2022-07-22T04:34:17;99418.06;;;19.04;70.80
61474;BME280;53694;49.784;30.150;2022-07-22T04:35:18;99422.66;;;18.90;71.52
61474;BME280;53694;49.784;30.150;2022-07-22T04:36:22;99430.63;;;18.88;71.99
61474;BME280;53694;49.784;30.150;2022-07-22T04:37:24;99425.62;;;19.03;72.07
61474;BME280;53694;49.784;30.150;2022-07-22T04:38:26;99419.19;;;19.30;71.22
61474;BME280;53694;49.784;30.150;2022-07-22T04:39:27;99418.97;;;19.64;70.15
61474;BME280;53694;49.784;30.150;2022-07-22T04:40:29;99426.09;;;20.05;68.74
61474;BME280;53694;49.784;30.150;2022-07-22T04:41:31;99428.82;;;20.44;67.21
61474;BME280;53694;49.784;30.150;2022-07-22T04:42:33;99425.99;;;20.81;65.78
61474;BME280;53694;49.784;30.150;2022-07-22T04:43:35;99420.94;;;21.08;64.55
61474;BME280;53694;49.784;30.150;2022-07-22T04:44:37;99421.87;;;21.18;63.91
61474;BME280;53694;49.784;30.150;2022-07-22T04:45:38;99427.63;;;21.11;63.70
61474;BME280;53694;49.784;30.150;2022-07-22T04:46:40;99427.31;;;20.92;64.00
61474;BME280;53694;49.784;30.150;2022-07-22T04:47:42;99425.04;;;20.71;64.68
61474;BME280;53694;49.784;30.150;2022-07-22T04:48:43;99423.58;;;20.46;65.48
61474;BME280;53694;49.784;30.150;2022-07-22T04:49:45;99427.73;;;20.22;66.30
61474;BME280;53694;49.784;30.150;2022-07-22T04:50:47;99423.81;;;20.00;67.22
61474;BME280;53694;49.784;30.150;2022-07-22T04:51:49;99423.47;;;19.78;68.01
61474;BME280;53694;49.784;30.150;2022-07-22T04:52:51;99423.80;;;19.60;68.76
61474;BME280;53694;49.784;30.150;2022-07-22T04:53:52;99427.33;;;19.40;69.47
61474;BME280;53694;49.784;30.150;2022-07-22T04:54:54;99427.23;;;19.24;70.09
61474;BME280;53694;49.784;30.150;2022-07-22T04:55:56;99421.48;;;19.11;70.59
61474;BME280;53694;49.784;30.150;2022-07-22T04:56:57;99419.34;;;18.99;71.24
61474;BME280;53694;49.784;30.150;2022-07-22T04:57:59;99423.36;;;18.94;71.72
61474;BME280;53694;49.784;30.150;2022-07-22T04:59:01;99416.79;;;19.08;71.65
61474;BME280;53694;49.784;30.150;2022-07-22T05:00:03;99425.42;;;19.37;70.87
61474;BME280;53694;49.784;30.150;2022-07-22T05:01:05;99426.70;;;19.76;69.56
61474;BME280;53694;49.784;30.150;2022-07-22T05:02:07;99436.17;;;20.18;68.18
61474;BME280;53694;49.784;30.150;2022-07-22T05:04:25;99434.11;;;21.08;65.08
61474;BME280;53694;49.784;30.150;2022-07-22T05:05:26;99434.20;;;21.04;64.24
61474;BME280;53694;49.784;30.150;2022-07-22T05:06:30;99431.16;;;20.99;64.27
61474;BME280;53694;49.784;30.150;2022-07-22T05:07:31;99432.27;;;20.85;64.43
61474;BME280;53694;49.784;30.150;2022-07-22T05:08:33;99435.16;;;20.65;64.94
61474;BME280;53694;49.784;30.150;2022-07-22T05:09:35;99437.97;;;20.45;65.66
61474;BME280;53694;49.784;30.150;2022-07-22T05:10:37;99428.08;;;20.24;66.49
61474;BME280;53694;49.784;30.150;2022-07-22T05:11:38;99427.69;;;20.06;67.11
61474;BME280;53694;49.784;30.150;2022-07-22T05:12:40;99428.84;;;19.88;67.75
61474;BME280;53694;49.784;30.150;2022-07-22T05:13:42;99438.69;;;19.73;68.49
61474;BME280;53694;49.784;30.150;2022-07-22T05:14:43;99435.72;;;19.60;69.11
61474;BME280;53694;49.784;30.150;2022-07-22T05:15:45;99428.77;;;19.48;69.64
61474;BME280;53694;49.784;30.150;2022-07-22T05:16:47;99424.20;;;19.38;70.28
61474;BME280;53694;49.784;30.150;2022-07-22T05:17:48;99429.11;;;19.31;70.55
61474;BME280;53694;49.784;30.150;2022-07-22T05:18:50;99432.80;;;19.24;70.87
61474;BME280;53694;49.784;30.150;2022-07-22T05:19:52;99430.01;;;19.24;70.87
61474;BME280;53694;49.784;30.150;2022-07-22T05:20:54;99434.91;;;19.40;70.60
61474;BME280;53694;49.784;30.150;2022-07-22T05:21:55;99437.53;;;19.70;69.63
61474;BME280;53694;49.784;30.150;2022-07-22T05:22:57;99437.61;;;20.07;68.00
61474;BME280;53694;49.784;30.150;2022-07-22T05:23:59;99437.97;;;20.45;66.21
61474;BME280;53694;49.784;30.150;2022-07-22T05:25:01;99438.13;;;20.74;64.96